createdAt,value
2023-01-12T00:01:30.466Z,100423.59
2023-01-12T00:03:57.074Z,100416.03
2023-01-12T00:06:24.912Z,100421.59
2023-01-12T00:08:51.755Z,100415.22
2023-01-12T00:11:18.468Z,100404.06
2023-01-12T00:13:45.127Z,100409.63
2023-01-12T00:16:35.274Z,100411.25
2023-01-12T00:19:02.449Z,100413.22
2023-01-12T00:21:29.247Z,100404.50
2023-01-12T00:23:55.516Z,100401.72
2023-01-12T00:26:21.771Z,100398.09
2023-01-12T00:28:48.006Z,100387.78
2023-01-12T00:31:14.329Z,100387.41
2023-01-12T00:33:40.669Z,100389.81
2023-01-12T00:36:08.491Z,100394.59
2023-01-12T00:38:35.470Z,100390.28
2023-01-12T00:41:05.392Z,100378.75
2023-01-12T00:43:50.088Z,100370.00
2023-01-12T00:46:16.951Z,100366.47
2023-01-12T00:48:43.458Z,100372.50
2023-01-12T00:51:10.053Z,100372.97
2023-01-12T00:53:36.481Z,100382.56
2023-01-12T00:56:03.372Z,100371.06
2023-01-12T00:58:30.277Z,100369.88
2023-01-12T01:01:06.326Z,100377.06
2023-01-12T01:03:35.110Z,100375.00
2023-01-12T01:06:05.075Z,100362.69
2023-01-12T01:08:32.565Z,100353.03
2023-01-12T01:11:02.714Z,100357.00
2023-01-12T01:13:29.024Z,100360.16
2023-01-12T01:15:55.339Z,100346.19
2023-01-12T01:18:21.778Z,100362.94
2023-01-12T01:20:48.210Z,100362.59
2023-01-12T01:23:14.780Z,100360.22
2023-01-12T01:25:41.051Z,100364.22
2023-01-12T01:28:07.361Z,100371.41
2023-01-12T01:30:33.659Z,100366.63
2023-01-12T01:32:59.962Z,100377.78
2023-01-12T01:35:26.216Z,100376.97
2023-01-12T01:37:54.556Z,100377.44
2023-01-12T01:40:21.013Z,100369.06
2023-01-12T01:42:47.543Z,100371.50
2023-01-12T01:45:14.149Z,100361.56
2023-01-12T01:47:42.885Z,100355.63
2023-01-12T01:50:16.813Z,100358.03
2023-01-12T01:52:45.267Z,100358.50
2023-01-12T01:55:14.286Z,100360.91
2023-01-12T01:57:46.267Z,100354.56
2023-01-12T02:00:13.211Z,100360.16
2023-01-12T02:02:40.062Z,100358.63
2023-01-12T02:05:06.648Z,100356.72
2023-01-12T02:07:33.082Z,100349.97
2023-01-12T02:09:59.655Z,100336.44
2023-01-12T02:12:44.945Z,100330.03
2023-01-12T02:15:31.534Z,100321.75
2023-01-12T02:18:17.368Z,100315.34
2023-01-12T02:20:49.419Z,100315.78
2023-01-12T02:23:54.460Z,100303.06
2023-01-12T02:26:39.480Z,100312.25
2023-01-12T02:29:08.705Z,100309.47
2023-01-12T02:31:35.249Z,100303.50
2023-01-12T02:34:15.963Z,100307.94
2023-01-12T02:36:51.133Z,100297.97
2023-01-12T02:39:29.862Z,100294.81
2023-01-12T02:42:30.103Z,100286.09
2023-01-12T02:45:07.444Z,100292.09
2023-01-12T02:47:43.206Z,100290.09
2023-01-12T02:50:12.476Z,100289.75
2023-01-12T02:52:43.119Z,100276.13
2023-01-12T02:55:10.091Z,100283.72
2023-01-12T02:57:37.593Z,100281.31
2023-01-12T03:00:05.259Z,100269.66
2023-01-12T03:02:32.004Z,100262.84
2023-01-12T03:04:58.674Z,100261.97
2023-01-12T03:07:31.326Z,100267.94
2023-01-12T03:10:12.472Z,100275.06
2023-01-12T03:12:39.634Z,100266.25
2023-01-12T03:15:08.326Z,100250.25
2023-01-12T03:17:37.547Z,100253.41
2023-01-12T03:20:06.981Z,100247.81
2023-01-12T03:22:36.521Z,100250.16
2023-01-12T03:25:09.148Z,100236.56
2023-01-12T03:27:45.548Z,100228.94
2023-01-12T03:30:18.509Z,100227.31
2023-01-12T03:32:45.160Z,100228.50
2023-01-12T03:35:11.956Z,100224.91
2023-01-12T03:37:46.891Z,100224.50
2023-01-12T03:40:17.417Z,100226.44
2023-01-12T03:42:48.139Z,100216.47
2023-01-12T03:45:26.344Z,100213.66
2023-01-12T03:47:56.031Z,100212.88
2023-01-12T03:50:27.372Z,100213.66
2023-01-12T03:52:55.169Z,100210.06
2023-01-12T03:55:24.036Z,100184.16
2023-01-12T03:57:51.597Z,100190.53
2023-01-12T04:00:20.249Z,100197.31
2023-01-12T04:02:46.660Z,100184.16
2023-01-12T04:05:13.948Z,100183.34
2023-01-12T04:07:40.180Z,100182.16
2023-01-12T04:10:06.981Z,100178.56
2023-01-12T04:12:33.686Z,100172.59
2023-01-12T04:15:00.073Z,100163.88
2023-01-12T04:17:28.075Z,100168.66
2023-01-12T04:19:54.526Z,100158.72
2023-01-12T04:22:39.636Z,100159.50
2023-01-12T04:25:07.965Z,100160.31
2023-01-12T04:27:35.683Z,100156.34
2023-01-12T04:30:02.079Z,100156.78
2023-01-12T04:32:28.287Z,100158.03
2023-01-12T04:34:54.608Z,100162.44
2023-01-12T04:37:21.575Z,100143.69
2023-01-12T04:39:48.185Z,100129.34
2023-01-12T04:42:33.278Z,100136.56
2023-01-12T04:45:00.237Z,100134.56
2023-01-12T04:47:26.677Z,100136.56
2023-01-12T04:49:53.126Z,100138.16
2023-01-12T04:52:19.553Z,100126.63
2023-01-12T04:54:45.808Z,100130.22
2023-01-12T04:57:12.345Z,100114.66
2023-01-12T04:59:38.768Z,100124.19
2023-01-12T05:02:05.037Z,100118.19
2023-01-12T05:04:31.524Z,100126.16
2023-01-12T05:06:57.816Z,100105.34
2023-01-12T05:09:45.244Z,100100.88
2023-01-12T05:12:11.527Z,100100.47
2023-01-12T05:14:37.750Z,100099.22
2023-01-12T05:17:04.968Z,100097.59
2023-01-12T05:19:31.434Z,100088.81
2023-01-12T05:21:58.030Z,100076.38
2023-01-12T05:24:34.103Z,100074.34
2023-01-12T05:27:01.763Z,100065.91
2023-01-12T05:29:28.428Z,100065.13
2023-01-12T05:31:54.920Z,100055.09
2023-01-12T05:34:21.199Z,100063.47
2023-01-12T05:36:47.857Z,100049.91
2023-01-12T05:39:14.141Z,100058.22
2023-01-12T05:42:03.354Z,100058.22
2023-01-12T05:44:29.795Z,100051.84
2023-01-12T05:46:56.779Z,100043.84
2023-01-12T05:49:23.027Z,100056.53
2023-01-12T05:51:49.505Z,100030.19
2023-01-12T05:54:15.933Z,100017.44
2023-01-12T05:56:42.796Z,100014.19
2023-01-12T05:59:10.346Z,100023.34
2023-01-12T06:01:36.826Z,100017.31
2023-01-12T06:04:03.465Z,100019.66
2023-01-12T06:06:31.323Z,100009.25
2023-01-12T06:08:58.535Z,100010.03
2023-01-12T06:11:43.636Z,100002.44
2023-01-12T06:14:10.457Z,99998.00
2023-01-12T06:16:37.698Z,99993.63
2023-01-12T06:19:04.435Z,99986.38
2023-01-12T06:21:32.082Z,99978.00
2023-01-12T06:23:59.729Z,99981.19
2023-01-12T06:26:26.258Z,99965.63
2023-01-12T06:28:52.484Z,99967.97
2023-01-12T06:31:18.917Z,99947.25
2023-01-12T06:33:45.160Z,99965.16
2023-01-12T06:36:11.462Z,99971.13
2023-01-12T06:38:38.054Z,99962.75
2023-01-12T06:41:04.385Z,99959.97
2023-01-12T06:43:30.875Z,99951.59
2023-01-12T06:45:57.275Z,99935.22
2023-01-12T06:48:25.801Z,99944.75
2023-01-12T06:50:54.779Z,99943.13
2023-01-12T06:53:20.994Z,99930.00
2023-01-12T06:55:48.696Z,99937.94
2023-01-12T06:58:15.024Z,99924.00
2023-01-12T07:00:41.344Z,99919.22
2023-01-12T07:03:07.588Z,99928.41
2023-01-12T07:05:33.940Z,99936.75
2023-01-12T07:08:00.518Z,99921.63
2023-01-12T07:10:27.362Z,99936.38
2023-01-12T07:12:53.730Z,99938.00
2023-01-12T07:15:20.123Z,99923.25
2023-01-12T07:17:46.408Z,99910.13
2023-01-12T07:20:12.824Z,99923.72
2023-01-12T07:22:39.405Z,99901.75
2023-01-12T07:25:06.065Z,99908.88
2023-01-12T07:27:32.611Z,99926.41
2023-01-12T07:29:58.860Z,99939.56
2023-01-12T07:32:27.042Z,99932.44
2023-01-12T07:34:53.350Z,99940.44
2023-01-12T07:37:19.672Z,99929.72
2023-01-12T07:39:46.014Z,99934.13
2023-01-12T07:42:24.512Z,99921.41
2023-01-12T07:44:51.357Z,99918.69
2023-01-12T07:47:17.782Z,99927.47
2023-01-12T07:49:44.190Z,99915.13
2023-01-12T07:52:11.092Z,99918.38
2023-01-12T07:54:37.957Z,99920.78
2023-01-12T07:57:04.930Z,99922.03
2023-01-12T07:59:31.229Z,99915.25
2023-01-12T08:01:58.637Z,99914.88
2023-01-12T08:04:25.002Z,99903.34
2023-01-12T08:06:51.613Z,99910.53
2023-01-12T08:09:18.079Z,99906.56
2023-01-12T08:11:44.313Z,99897.00
2023-01-12T08:14:12.590Z,99904.19
2023-01-12T08:16:41.171Z,99903.84
2023-01-12T08:19:13.231Z,99909.09
2023-01-12T08:21:45.854Z,99903.13
2023-01-12T08:24:16.666Z,99903.91
2023-01-12T08:26:45.045Z,99909.56
2023-01-12T08:29:14.449Z,99907.19
2023-01-12T08:31:41.111Z,99906.44
2023-01-12T08:34:08.220Z,99903.28
2023-01-12T08:36:34.577Z,99911.69
2023-01-12T08:39:04.023Z,99915.34
2023-01-12T08:41:34.333Z,99914.97
2023-01-12T08:44:09.245Z,99921.41
2023-01-12T08:46:36.860Z,99910.28
2023-01-12T08:49:04.757Z,99911.91
2023-01-12T08:51:31.077Z,99912.75
2023-01-12T08:53:57.435Z,99904.38
2023-01-12T08:56:23.834Z,99915.22
2023-01-12T08:58:50.383Z,99917.25
2023-01-12T09:01:17.417Z,99906.50
2023-01-12T09:03:48.357Z,99920.53
2023-01-12T09:06:19.323Z,99911.38
2023-01-12T09:08:46.077Z,99913.41
2023-01-12T09:11:13.056Z,99921.03
2023-01-12T09:13:39.834Z,99900.72
2023-01-12T09:16:12.540Z,99936.66
2023-01-12T09:18:39.801Z,99894.78
2023-01-12T09:21:10.976Z,99914.78
2023-01-12T09:23:38.732Z,99928.34
2023-01-12T09:26:10.609Z,99929.97
2023-01-12T09:28:37.593Z,99932.00
2023-01-12T09:31:09.215Z,99933.59
2023-01-12T09:33:37.124Z,99939.66
2023-01-12T09:36:07.842Z,99938.94
2023-01-12T09:38:38.290Z,99950.16
2023-01-12T09:41:16.929Z,99933.41
2023-01-12T09:44:02.324Z,99925.03
2023-01-12T09:46:57.475Z,99967.84
2023-01-12T09:49:29.154Z,99960.31
2023-01-12T09:52:19.007Z,99951.59
2023-01-12T09:54:47.612Z,99951.63
2023-01-12T09:57:29.112Z,99955.25
2023-01-12T10:00:07.843Z,99950.50
2023-01-12T10:02:35.529Z,99947.75
2023-01-12T10:05:07.170Z,99972.97
2023-01-12T10:07:33.993Z,99940.25
2023-01-12T10:10:00.499Z,99961.03
2023-01-12T10:12:31.081Z,99972.25
2023-01-12T10:15:06.780Z,99971.47
2023-01-12T10:17:50.257Z,99972.72
2023-01-12T10:20:21.682Z,99973.13
2023-01-12T10:22:49.872Z,99980.00
2023-01-12T10:25:25.805Z,99978.84
2023-01-12T10:27:56.775Z,99970.06
2023-01-12T10:30:29.079Z,99984.91
2023-01-12T10:32:55.657Z,99968.94
2023-01-12T10:35:23.328Z,99975.34
2023-01-12T10:37:54.323Z,99965.78
2023-01-12T10:40:23.636Z,99981.44
2023-01-12T10:43:19.605Z,99972.25
2023-01-12T10:46:02.176Z,99970.25
2023-01-12T10:48:28.673Z,99963.88
2023-01-12T10:50:57.564Z,99955.88
2023-01-12T10:53:28.149Z,99964.72
2023-01-12T10:55:54.944Z,99986.31
2023-01-12T10:58:22.717Z,99962.34
2023-01-12T11:00:49.767Z,99969.59
2023-01-12T11:03:27.866Z,99970.44
2023-01-12T11:05:54.169Z,99973.63
2023-01-12T11:08:26.088Z,99971.66
2023-01-12T11:10:52.590Z,99970.03
2023-01-12T11:13:24.534Z,99970.81
2023-01-12T11:15:59.247Z,99975.22
2023-01-12T11:18:35.816Z,99980.03
2023-01-12T11:21:04.866Z,99959.22
2023-01-12T11:23:49.919Z,99958.81
2023-01-12T11:26:18.937Z,99961.22
2023-01-12T11:28:47.726Z,99976.81
2023-01-12T11:31:30.491Z,99983.22
2023-01-12T11:33:56.723Z,99975.63
2023-01-12T11:36:32.789Z,99971.25
2023-01-12T11:39:01.986Z,99968.03
2023-01-12T11:41:31.272Z,99984.84
2023-01-12T11:44:16.359Z,99967.69
2023-01-12T11:46:47.989Z,99976.91
2023-01-12T11:49:20.471Z,99970.09
2023-01-12T11:51:53.681Z,99963.69
2023-01-12T11:54:20.114Z,99965.28
2023-01-12T11:57:10.017Z,99963.31
2023-01-12T11:59:54.025Z,99969.69
2023-01-12T12:02:37.657Z,99968.09
2023-01-12T12:05:17.091Z,99969.31
2023-01-12T12:08:02.378Z,99978.53
2023-01-12T12:10:31.407Z,99951.34
2023-01-12T12:13:16.107Z,99966.53
2023-01-12T12:15:51.793Z,99954.97
2023-01-12T12:18:27.522Z,99951.34
2023-01-12T12:20:59.853Z,99959.38
2023-01-12T12:23:26.053Z,99968.16
2023-01-12T12:26:02.007Z,99970.59
2023-01-12T12:28:45.917Z,99962.19
2023-01-12T12:31:18.680Z,99958.56
2023-01-12T12:34:10.951Z,99957.41
2023-01-12T12:36:52.583Z,99967.38
2023-01-12T12:39:22.133Z,99955.75
2023-01-12T12:42:18.487Z,99964.94
2023-01-12T12:45:15.620Z,99956.50
2023-01-12T12:47:44.948Z,99964.91
2023-01-12T12:50:20.843Z,99954.88
2023-01-12T12:52:51.888Z,99953.25
2023-01-12T12:55:18.365Z,99954.47
2023-01-12T12:58:01.292Z,99946.88
2023-01-12T13:00:30.379Z,99952.88
2023-01-12T13:02:58.583Z,99942.03
2023-01-12T13:05:44.637Z,99950.84
2023-01-12T13:08:21.647Z,99941.22
2023-01-12T13:10:49.145Z,99938.84
2023-01-12T13:13:35.822Z,99940.41
2023-01-12T13:16:11.280Z,99941.53
2023-01-12T13:18:46.719Z,99945.56
2023-01-12T13:21:28.409Z,99945.97
2023-01-12T13:24:10.277Z,99941.16
2023-01-12T13:26:39.502Z,99938.72
2023-01-12T13:29:24.264Z,99928.38
2023-01-12T13:31:52.371Z,99938.72
2023-01-12T13:34:37.036Z,99941.53
2023-01-12T13:37:12.514Z,99925.13
2023-01-12T13:39:43.827Z,99933.13
2023-01-12T13:42:34.394Z,99936.38
2023-01-12T13:45:01.988Z,99929.56
2023-01-12T13:47:32.784Z,99936.38
2023-01-12T13:50:00.484Z,99927.22
2023-01-12T13:52:32.020Z,99936.78
2023-01-12T13:54:58.922Z,99925.25
2023-01-12T13:57:27.295Z,99932.47
2023-01-12T14:00:01.243Z,99929.28
2023-01-12T14:02:32.477Z,99940.88
2023-01-12T14:05:17.695Z,99942.91
2023-01-12T14:08:06.977Z,99934.53
2023-01-12T14:10:52.205Z,99934.94
2023-01-12T14:13:37.110Z,99945.38
2023-01-12T14:16:28.031Z,99945.72
2023-01-12T14:18:54.400Z,99946.56
2023-01-12T14:21:23.143Z,99943.41
2023-01-12T14:23:49.801Z,99949.78
2023-01-12T14:26:22.145Z,99950.59
2023-01-12T14:28:50.723Z,99956.19
2023-01-12T14:31:17.028Z,99953.41
2023-01-12T14:33:48.217Z,99958.19
2023-01-12T14:36:17.579Z,99942.59
2023-01-12T14:38:44.454Z,99944.97
2023-01-12T14:41:36.105Z,99942.56
2023-01-12T14:44:21.249Z,99945.72
2023-01-12T14:46:50.148Z,99936.94
2023-01-12T14:49:16.418Z,99941.31
2023-01-12T14:51:51.272Z,99947.69
2023-01-12T14:54:20.282Z,99941.66
2023-01-12T14:56:56.671Z,99940.06
2023-01-12T14:59:24.655Z,99941.28
2023-01-12T15:01:51.966Z,99936.88
2023-01-12T15:04:23.689Z,99933.63
2023-01-12T15:07:08.272Z,99923.63
2023-01-12T15:09:37.043Z,99929.22
2023-01-12T15:12:21.967Z,99909.25
2023-01-12T15:14:48.255Z,99923.59
2023-01-12T15:17:34.531Z,99926.78
2023-01-12T15:20:19.663Z,99917.56
2023-01-12T15:23:09.499Z,99918.34
2023-01-12T15:25:39.101Z,99922.34
2023-01-12T15:28:07.370Z,99916.34
2023-01-12T15:30:37.975Z,99916.69
2023-01-12T15:33:04.813Z,99915.09
2023-01-12T15:35:32.483Z,99915.09
2023-01-12T15:37:59.648Z,99915.09
2023-01-12T15:40:26.571Z,99914.72
2023-01-12T15:42:53.621Z,99914.31
2023-01-12T15:45:19.940Z,99913.09
2023-01-12T15:47:47.135Z,99917.88
2023-01-12T15:50:13.407Z,99910.66
2023-01-12T15:52:39.621Z,99918.25
2023-01-12T15:55:06.776Z,99911.88
2023-01-12T15:57:34.105Z,99906.66
2023-01-12T16:00:00.375Z,99901.06
2023-01-12T16:02:33.173Z,99904.66
2023-01-12T16:04:59.563Z,99913.06
2023-01-12T16:07:25.965Z,99901.44
2023-01-12T16:09:55.323Z,99902.63
2023-01-12T16:12:22.255Z,99897.44
2023-01-12T16:14:49.438Z,99902.22
2023-01-12T16:17:15.720Z,99894.63
2023-01-12T16:19:42.143Z,99893.03
2023-01-12T16:22:21.007Z,99897.44
2023-01-12T16:24:48.100Z,99898.19
2023-01-12T16:27:18.525Z,99899.41
2023-01-12T16:29:45.038Z,99895.81
2023-01-12T16:32:12.099Z,99886.59
2023-01-12T16:34:41.636Z,99886.59
2023-01-12T16:37:15.030Z,99897.81
2023-01-12T16:39:41.864Z,99894.19
2023-01-12T16:42:08.839Z,99892.59
2023-01-12T16:44:40.071Z,99888.16
2023-01-12T16:47:09.774Z,99891.78
2023-01-12T16:49:36.382Z,99875.78
2023-01-12T16:52:03.261Z,99873.38
2023-01-12T16:54:29.692Z,99868.19
2023-01-12T16:56:56.154Z,99867.41
2023-01-12T16:59:22.564Z,99866.59
2023-01-12T17:01:51.719Z,99874.97
2023-01-12T17:04:19.856Z,99875.81
2023-01-12T17:06:47.215Z,99869.38
2023-01-12T17:09:16.352Z,99867.41
2023-01-12T17:11:43.817Z,99851.44
2023-01-12T17:14:24.149Z,99859.81
2023-01-12T17:16:56.242Z,99865.03
2023-01-12T17:19:26.892Z,99868.63
2023-01-12T17:21:58.321Z,99859.84
2023-01-12T17:24:24.961Z,99858.22
2023-01-12T17:26:52.708Z,99850.63
2023-01-12T17:29:20.763Z,99863.81
2023-01-12T17:31:47.714Z,99853.84
2023-01-12T17:34:14.921Z,99851.84
2023-01-12T17:36:42.384Z,99852.59
2023-01-12T17:39:09.319Z,99855.41
2023-01-12T17:41:54.666Z,99853.00
2023-01-12T17:44:21.341Z,99859.81
2023-01-12T17:46:51.551Z,99852.59
2023-01-12T17:49:18.848Z,99861.00
2023-01-12T17:51:45.197Z,99856.22
2023-01-12T17:54:12.364Z,99856.22
2023-01-12T17:56:38.668Z,99861.00
2023-01-12T17:59:05.960Z,99856.22
2023-01-12T18:01:35.910Z,99861.41
2023-01-12T18:04:02.398Z,99861.00
2023-01-12T18:06:29.256Z,99863.44
2023-01-12T18:08:57.182Z,99864.63
2023-01-12T18:11:23.768Z,99856.22
2023-01-12T18:13:50.388Z,99857.84
2023-01-12T18:16:16.884Z,99847.41
2023-01-12T18:18:43.979Z,99849.81
2023-01-12T18:21:12.228Z,99850.63
2023-01-12T18:23:38.826Z,99848.63
2023-01-12T18:26:07.311Z,99843.03
2023-01-12T18:28:33.737Z,99845.03
2023-01-12T18:31:07.382Z,99851.84
2023-01-12T18:33:33.712Z,99835.84
2023-01-12T18:36:01.895Z,99838.25
2023-01-12T18:38:28.388Z,99837.84
2023-01-12T18:41:13.794Z,99835.44
2023-01-12T18:43:42.012Z,99832.25
2023-01-12T18:46:11.683Z,99839.88
2023-01-12T18:48:38.119Z,99835.44
2023-01-12T18:51:23.100Z,99843.03
2023-01-12T18:53:49.436Z,99842.25
2023-01-12T18:56:16.296Z,99829.06
2023-01-12T18:58:45.140Z,99842.66
2023-01-12T19:01:18.419Z,99835.03
2023-01-12T19:03:44.800Z,99829.06
2023-01-12T19:06:18.513Z,99826.25
2023-01-12T19:09:04.452Z,99823.47
2023-01-12T19:11:31.053Z,99831.06
2023-01-12T19:14:15.933Z,99815.88
2023-01-12T19:17:01.547Z,99827.44
2023-01-12T19:19:29.207Z,99826.66
2023-01-12T19:22:14.058Z,99829.44
2023-01-12T19:24:59.470Z,99824.66
2023-01-12T19:27:44.714Z,99835.03
2023-01-12T19:30:11.369Z,99817.88
2023-01-12T19:32:37.686Z,99831.44
2023-01-12T19:35:11.187Z,99830.25
2023-01-12T19:37:39.666Z,99825.47
2023-01-12T19:40:25.393Z,99832.66
2023-01-12T19:43:10.211Z,99822.66
2023-01-12T19:45:36.934Z,99825.09
2023-01-12T19:48:04.283Z,99801.50
2023-01-12T19:50:30.834Z,99815.50
2023-01-12T19:52:57.217Z,99817.88
2023-01-12T19:55:23.454Z,99825.47
2023-01-12T19:57:49.968Z,99809.09
2023-01-12T20:00:16.531Z,99816.69
2023-01-12T20:02:43.697Z,99817.88
2023-01-12T20:05:13.288Z,99813.06
2023-01-12T20:07:39.832Z,99805.06
2023-01-12T20:10:06.182Z,99804.28
2023-01-12T20:12:32.470Z,99807.88
2023-01-12T20:14:59.010Z,99813.06
2023-01-12T20:17:27.708Z,99802.69
2023-01-12T20:19:54.051Z,99803.88
2023-01-12T20:22:21.272Z,99812.69
2023-01-12T20:24:47.983Z,99807.91
2023-01-12T20:27:14.408Z,99803.91
2023-01-12T20:29:42.499Z,99802.69
2023-01-12T20:32:09.060Z,99806.69
2023-01-12T20:34:36.538Z,99807.13
2023-01-12T20:37:03.030Z,99801.13
2023-01-12T20:39:30.784Z,99807.13
2023-01-12T20:41:57.048Z,99814.31
2023-01-12T20:44:24.627Z,99819.56
2023-01-12T20:46:50.982Z,99811.97
2023-01-12T20:49:18.423Z,99814.75
2023-01-12T20:51:44.752Z,99811.97
2023-01-12T20:54:11.661Z,99814.75
2023-01-12T20:56:37.972Z,99811.56
2023-01-12T20:59:04.263Z,99826.75
2023-01-12T21:01:30.844Z,99808.72
2023-01-12T21:03:57.444Z,99821.13
2023-01-12T21:06:24.013Z,99820.72
2023-01-12T21:08:50.694Z,99822.72
2023-01-12T21:11:18.583Z,99831.88
2023-01-12T21:13:47.741Z,99828.28
2023-01-12T21:16:16.111Z,99821.06
2023-01-12T21:18:42.863Z,99811.06
2023-01-12T21:21:09.603Z,99814.25
2023-01-12T21:23:36.130Z,99816.63
2023-01-12T21:26:06.545Z,99817.03
2023-01-12T21:28:33.004Z,99812.63
2023-01-12T21:31:03.477Z,99815.78
2023-01-12T21:33:30.350Z,99816.59
2023-01-12T21:35:57.479Z,99813.00
2023-01-12T21:38:24.431Z,99814.59
2023-01-12T21:40:50.654Z,99801.00
2023-01-12T21:43:18.048Z,99796.22
2023-01-12T21:45:45.905Z,99789.41
2023-01-12T21:48:13.592Z,99792.22
2023-01-12T21:50:40.245Z,99801.81
2023-01-12T21:53:06.975Z,99802.59
2023-01-12T21:55:33.680Z,99794.22
2023-01-12T21:58:00.420Z,99795.00
2023-01-12T22:00:26.939Z,99793.84
2023-01-12T22:02:54.132Z,99804.25
2023-01-12T22:05:22.126Z,99794.22
2023-01-12T22:07:49.056Z,99789.41
2023-01-12T22:10:19.130Z,99788.25
2023-01-12T22:12:54.039Z,99787.84
2023-01-12T22:15:21.471Z,99787.84
2023-01-12T22:17:48.311Z,99800.28
2023-01-12T22:20:16.615Z,99789.09
2023-01-12T22:22:43.342Z,99798.69
2023-01-12T22:25:11.232Z,99799.06
2023-01-12T22:27:37.845Z,99819.88
2023-01-12T22:30:05.920Z,99793.13
2023-01-12T22:32:32.203Z,99791.94
2023-01-12T22:35:01.915Z,99779.94
2023-01-12T22:37:28.970Z,99792.38
2023-01-12T22:39:55.495Z,99792.41
2023-01-12T22:42:42.656Z,99795.59
2023-01-12T22:45:10.580Z,99792.03
2023-01-12T22:47:47.777Z,99788.81
2023-01-12T22:50:14.688Z,99784.03
2023-01-12T22:52:42.069Z,99788.06
2023-01-12T22:55:08.911Z,99788.47
2023-01-12T22:57:35.371Z,99778.06
2023-01-12T23:00:01.680Z,99785.28
2023-01-12T23:02:48.537Z,99766.09
2023-01-12T23:05:15.051Z,99778.50
2023-01-12T23:07:41.639Z,99770.09
2023-01-12T23:10:08.481Z,99768.09
2023-01-12T23:12:35.676Z,99764.13
2023-01-12T23:15:02.159Z,99773.31
2023-01-12T23:17:29.065Z,99762.91
2023-01-12T23:19:55.630Z,99770.13
2023-01-12T23:22:22.065Z,99772.50
2023-01-12T23:24:48.559Z,99764.91
2023-01-12T23:27:15.342Z,99752.53
2023-01-12T23:29:41.860Z,99768.94
2023-01-12T23:32:08.291Z,99760.53
2023-01-12T23:34:34.796Z,99763.34
2023-01-12T23:37:01.217Z,99757.75
2023-01-12T23:39:27.777Z,99752.16
2023-01-12T23:41:54.292Z,99759.75
2023-01-12T23:44:21.206Z,99768.13
2023-01-12T23:46:47.806Z,99758.94
2023-01-12T23:49:15.876Z,99759.31
2023-01-12T23:51:42.632Z,99756.13
2023-01-12T23:54:09.518Z,99758.53
2023-01-12T23:56:36.044Z,99764.09
2023-01-12T23:59:02.405Z,99743.69
